Time;durP1;ratioP1;P1;durP2;ratioP2;P2;SDS_P1;SDS_P2;PMS_P1;PMS_P2;Temp;Humidity;BMP_temperature;BMP_pressure;BME280_temperature;BME280_humidity;BME280_pressure;Samples;Min_cycle;Max_cycle;Signal;HPM_P1;HPM_P2
2022/08/24 00:00:24;;;;;;;7.83;5.10;;;23.40;52.90;;;;;;5088741;28;20547;-48
2022/08/24 00:02:51;;;;;;;7.70;6.30;;;23.40;53.10;;;;;;5087758;28;20952;-48
2022/08/24 00:05:20;;;;;;;5.30;4.20;;;23.30;53.10;;;;;;5068187;28;20510;-48
2022/08/24 00:07:48;;;;;;;5.87;4.80;;;23.30;53.10;;;;;;5087718;28;20807;-48
2022/08/24 00:10:16;;;;;;;6.93;4.97;;;23.20;53.40;;;;;;5070116;28;20463;-48
2022/08/24 00:12:43;;;;;;;5.47;5.03;;;23.20;53.00;;;;;;5086998;28;20542;-48
2022/08/24 00:15:12;;;;;;;7.73;5.00;;;23.10;53.10;;;;;;5083207;28;20479;-48
2022/08/24 00:17:39;;;;;;;6.20;4.80;;;23.10;53.10;;;;;;5087019;28;20445;-48
2022/08/24 00:20:08;;;;;;;6.83;4.90;;;23.10;53.40;;;;;;5086936;28;20845;-48
2022/08/24 00:22:35;;;;;;;10.50;4.50;;;23.10;53.30;;;;;;5085971;28;20479;-48
2022/08/24 00:25:03;;;;;;;8.53;4.90;;;23.10;52.90;;;;;;5086789;28;20490;-48
2022/08/24 00:27:30;;;;;;;4.60;4.20;;;23.00;53.60;;;;;;5088950;28;20456;-49
2022/08/24 00:29:56;;;;;;;5.57;4.70;;;23.00;53.60;;;;;;5084791;28;20485;-48
2022/08/24 00:32:23;;;;;;;8.33;4.80;;;22.90;53.90;;;;;;5071903;28;20832;-48
2022/08/24 00:34:50;;;;;;;7.10;4.70;;;23.00;53.30;;;;;;5069276;28;20464;-48
2022/08/24 00:37:27;;;;;;;4.70;4.30;;;23.00;53.40;;;;;;5066884;28;20481;-48
2022/08/24 00:39:54;;;;;;;4.70;4.17;;;23.00;53.50;;;;;;5085770;28;20468;-48
2022/08/24 00:42:22;;;;;;;5.73;5.13;;;22.90;53.50;;;;;;5087148;28;20456;-48
2022/08/24 00:44:48;;;;;;;6.37;5.27;;;22.90;53.80;;;;;;5085826;28;20499;-47
2022/08/24 00:47:26;;;;;;;6.07;5.47;;;22.90;53.70;;;;;;5087353;28;20460;-48
2022/08/24 00:50:01;;;;;;;6.17;5.57;;;23.00;53.60;;;;;;5083677;28;20469;-47
2022/08/24 00:52:42;;;;;;;5.40;4.90;;;23.00;53.00;;;;;;5085094;28;20473;-47
2022/08/24 00:55:16;;;;;;;6.13;4.70;;;22.90;53.40;;;;;;5076835;28;20464;-48
2022/08/24 00:57:46;;;;;;;5.90;5.23;;;22.80;53.70;;;;;;5080204;28;20492;-47
2022/08/24 01:00:22;;;;;;;6.03;4.97;;;22.60;54.00;;;;;;5065416;28;20471;-47
2022/08/24 01:02:54;;;;;;;5.47;4.87;;;22.60;54.20;;;;;;5086112;28;20835;-47
2022/08/24 01:05:21;;;;;;;6.50;3.90;;;22.50;54.50;;;;;;5064186;28;20492;-46
2022/08/24 01:07:49;;;;;;;5.10;4.50;;;22.60;54.50;;;;;;5054063;28;20560;-48
2022/08/24 01:10:20;;;;;;;6.40;5.30;;;22.60;54.60;;;;;;5069080;28;20496;-47
2022/08/24 01:12:50;;;;;;;5.70;4.90;;;22.60;54.50;;;;;;5086345;28;20965;-47
2022/08/24 01:15:32;;;;;;;5.50;4.90;;;22.50;54.80;;;;;;5085169;28;20464;-47
2022/08/24 01:20:52;;;;;;;5.73;4.60;;;22.40;55.00;;;;;;5077083;28;20469;-47
2022/08/24 01:23:40;;;;;;;5.40;4.90;;;22.40;55.00;;;;;;5068393;28;20467;-47
2022/08/24 01:26:11;;;;;;;7.03;5.27;;;22.30;55.30;;;;;;5085175;28;20972;-46
2022/08/24 01:28:42;;;;;;;8.90;5.70;;;22.30;55.20;;;;;;5085557;28;20465;-47
2022/08/24 01:31:10;;;;;;;5.70;4.60;;;22.30;55.30;;;;;;5083720;28;21062;-47
2022/08/24 01:33:38;;;;;;;6.50;5.03;;;22.20;55.50;;;;;;5086044;28;20463;-47
2022/08/24 01:36:16;;;;;;;6.33;5.17;;;22.20;55.30;;;;;;5083133;28;20471;-47
2022/08/24 01:38:44;;;;;;;5.80;5.10;;;22.10;55.70;;;;;;5085476;28;20499;-47
2022/08/24 01:41:11;;;;;;;6.37;4.87;;;22.10;55.60;;;;;;5085769;28;20468;-47
2022/08/24 01:43:38;;;;;;;6.60;4.90;;;22.00;56.10;;;;;;5064908;28;20504;-47
2022/08/24 01:46:05;;;;;;;7.07;5.63;;;21.90;56.20;;;;;;5061703;28;20929;-47
2022/08/24 01:48:32;;;;;;;6.20;5.27;;;21.90;56.40;;;;;;5062100;28;20971;-47
2022/08/24 01:50:58;;;;;;;5.87;5.27;;;21.90;56.40;;;;;;5085059;28;21075;-48
2022/08/24 01:53:25;;;;;;;6.90;5.30;;;21.90;56.40;;;;;;5084475;28;20456;-48
2022/08/24 01:55:52;;;;;;;9.93;6.40;;;21.90;56.40;;;;;;5059902;28;20456;-48
2022/08/24 01:58:19;;;;;;;8.23;4.70;;;21.90;56.30;;;;;;5082945;28;20503;-47
2022/08/24 02:00:46;;;;;;;11.80;6.00;;;21.80;56.60;;;;;;5081918;28;20989;-51
2022/08/24 02:03:12;;;;;;;11.03;5.30;;;21.80;56.50;;;;;;5082485;28;20460;-47
2022/08/24 02:05:39;;;;;;;6.90;5.50;;;21.80;56.40;;;;;;5067141;28;20617;-48
2022/08/24 02:08:06;;;;;;;7.37;4.80;;;21.80;56.50;;;;;;5084816;28;20981;-47
2022/08/24 02:10:34;;;;;;;5.13;4.63;;;21.80;56.60;;;;;;5081838;28;20483;-47
2022/08/24 02:13:02;;;;;;;6.27;5.43;;;21.70;56.80;;;;;;5067289;28;20470;-47
2022/08/24 02:15:37;;;;;;;5.37;4.87;;;21.70;56.90;;;;;;5082312;28;20499;-47
2022/08/24 02:18:06;;;;;;;6.23;4.90;;;21.70;56.70;;;;;;5062710;28;20521;-47
2022/08/24 02:20:40;;;;;;;5.73;5.10;;;21.60;56.70;;;;;;5080428;28;20543;-47
2022/08/24 02:23:07;;;;;;;6.50;5.47;;;21.50;57.00;;;;;;5082647;28;20759;-47
2022/08/24 02:25:34;;;;;;;5.03;4.50;;;21.40;57.10;;;;;;5069183;28;20489;-47
2022/08/24 02:28:01;;;;;;;6.10;5.50;;;21.40;57.40;;;;;;5080303;28;20484;-48
2022/08/24 02:30:29;;;;;;;5.10;4.70;;;21.40;57.40;;;;;;5059813;28;20851;-48
2022/08/24 02:32:57;;;;;;;5.30;4.73;;;21.40;57.40;;;;;;5083482;28;20480;-47
2022/08/24 02:35:25;;;;;;;7.03;4.73;;;21.30;57.50;;;;;;5082478;28;20479;-48
2022/08/24 02:37:52;;;;;;;5.87;5.10;;;21.40;57.50;;;;;;5083778;28;20830;-47
2022/08/24 02:40:20;;;;;;;5.10;4.60;;;21.30;57.70;;;;;;5063708;28;20471;-47
2022/08/24 02:42:47;;;;;;;5.37;4.90;;;21.30;57.70;;;;;;5089544;28;20503;-48
2022/08/24 02:45:14;;;;;;;5.60;4.87;;;21.30;57.80;;;;;;5088012;28;20489;-48
2022/08/24 02:47:41;;;;;;;4.60;4.20;;;21.20;57.80;;;;;;5070916;28;20973;-49
2022/08/24 02:50:14;;;;;;;4.77;4.30;;;21.30;57.70;;;;;;5088745;28;20456;-50
2022/08/24 02:52:41;;;;;;;5.57;4.73;;;21.20;57.60;;;;;;5082941;28;20456;-50
2022/08/24 02:55:13;;;;;;;6.50;4.90;;;21.20;57.90;;;;;;5083255;28;20468;-50
2022/08/24 02:57:40;;;;;;;5.93;4.50;;;21.10;58.00;;;;;;5080323;28;21560;-51
2022/08/24 03:00:10;;;;;;;5.40;5.00;;;21.10;57.90;;;;;;5079375;28;20844;-51
2022/08/24 03:02:39;;;;;;;5.53;5.03;;;21.20;57.80;;;;;;5084195;28;20460;-50
2022/08/24 03:05:07;;;;;;;5.40;4.90;;;21.20;57.70;;;;;;5067935;28;21004;-50
2022/08/24 03:07:34;;;;;;;5.07;4.57;;;21.10;57.90;;;;;;5068565;28;20832;-50
2022/08/24 03:10:01;;;;;;;4.93;4.43;;;21.10;57.40;;;;;;5087898;28;20452;-50
2022/08/24 03:12:28;;;;;;;5.07;4.67;;;21.10;57.10;;;;;;5061799;28;20465;-50
2022/08/24 03:14:54;;;;;;;5.00;4.13;;;21.10;56.90;;;;;;5066453;28;20548;-50
2022/08/24 03:17:22;;;;;;;6.70;4.17;;;21.00;57.10;;;;;;5084270;28;20518;-50
2022/08/24 03:19:49;;;;;;;5.17;4.70;;;20.90;57.40;;;;;;5088215;28;20925;-50
2022/08/24 03:22:16;;;;;;;5.00;4.00;;;20.90;57.40;;;;;;5087806;28;20483;-50
2022/08/24 03:24:44;;;;;;;7.60;4.87;;;20.90;57.90;;;;;;5069664;28;20546;-50
2022/08/24 03:27:12;;;;;;;5.17;4.57;;;20.70;58.30;;;;;;5087805;28;20457;-50
2022/08/24 03:29:40;;;;;;;7.07;4.90;;;20.70;58.40;;;;;;5069000;28;20543;-50
2022/08/24 03:32:07;;;;;;;8.37;4.70;;;20.70;58.50;;;;;;5088941;28;20965;-50
2022/08/24 03:34:34;;;;;;;6.43;4.90;;;20.80;58.20;;;;;;5067814;28;20456;-50
2022/08/24 03:37:01;;;;;;;5.07;4.37;;;20.80;58.40;;;;;;5068408;28;20843;-51
2022/08/24 03:39:27;;;;;;;4.23;3.83;;;20.80;58.30;;;;;;5085236;28;20464;-51
2022/08/24 03:41:55;;;;;;;4.37;3.97;;;20.80;58.50;;;;;;5069311;28;20457;-51
2022/08/24 03:44:24;;;;;;;4.47;4.03;;;20.80;58.60;;;;;;5088370;28;20862;-51
2022/08/24 03:46:52;;;;;;;6.73;4.13;;;20.80;58.60;;;;;;5069525;28;20479;-50
2022/08/24 03:49:20;;;;;;;5.70;5.10;;;20.70;58.90;;;;;;5086849;28;20467;-50
2022/08/24 03:51:46;;;;;;;4.30;3.90;;;20.60;59.00;;;;;;5085416;28;20468;-50
2022/08/24 03:54:16;;;;;;;4.13;3.57;;;20.60;59.20;;;;;;5070948;28;20835;-50
2022/08/24 03:56:42;;;;;;;4.27;3.90;;;20.60;59.50;;;;;;5067345;28;20476;-50
2022/08/24 03:59:10;;;;;;;4.83;3.90;;;20.60;59.50;;;;;;5069233;28;20501;-51
2022/08/24 04:01:37;;;;;;;5.40;3.87;;;20.60;59.70;;;;;;5084962;28;20472;-50
2022/08/24 04:04:05;;;;;;;4.33;3.73;;;20.60;60.00;;;;;;5088506;28;20501;-50
2022/08/24 04:06:31;;;;;;;5.50;3.90;;;20.50;60.20;;;;;;5086561;28;20480;-50
2022/08/24 04:08:58;;;;;;;4.50;4.10;;;20.60;60.10;;;;;;5084366;28;20888;-50
2022/08/24 04:11:27;;;;;;;4.00;3.40;;;20.50;60.30;;;;;;5083278;28;20844;-50
2022/08/24 04:13:56;;;;;;;4.27;3.57;;;20.50;60.50;;;;;;5085787;28;20465;-50
2022/08/24 04:16:24;;;;;;;3.97;3.67;;;20.50;60.40;;;;;;5082854;28;20472;-50
2022/08/24 04:18:51;;;;;;;4.80;4.40;;;20.50;60.40;;;;;;5086870;28;20941;-50
2022/08/24 04:21:23;;;;;;;4.30;4.00;;;20.50;60.50;;;;;;5088780;28;20468;-50
2022/08/24 04:23:51;;;;;;;5.30;3.80;;;20.60;60.50;;;;;;5065653;28;22164;-50
2022/08/24 04:26:20;;;;;;;5.30;3.60;;;20.60;60.50;;;;;;5085656;28;20488;-51
2022/08/24 04:29:09;;;;;;;5.50;4.10;;;20.50;60.70;;;;;;5071727;28;20513;-51
2022/08/24 04:31:37;;;;;;;5.80;3.80;;;20.50;61.00;;;;;;5083051;28;20464;-51
2022/08/24 04:34:05;;;;;;;4.57;4.00;;;20.50;61.00;;;;;;5068033;28;20468;-50
2022/08/24 04:36:33;;;;;;;4.67;4.17;;;20.50;61.00;;;;;;5085262;28;20467;-51
2022/08/24 04:39:00;;;;;;;4.30;3.90;;;20.60;61.00;;;;;;5084452;28;20464;-50
2022/08/24 04:41:27;;;;;;;4.87;4.40;;;20.50;61.00;;;;;;5084479;28;20472;-51
2022/08/24 04:43:58;;;;;;;6.87;5.17;;;20.50;60.90;;;;;;5083552;28;20559;-51
2022/08/24 04:46:26;;;;;;;4.70;4.20;;;20.50;60.90;;;;;;5081774;28;20481;-50
2022/08/24 04:48:53;;;;;;;6.30;3.83;;;20.60;61.00;;;;;;5084394;28;20469;-50
2022/08/24 04:51:20;;;;;;;3.87;3.57;;;20.50;61.10;;;;;;5083813;28;21284;-50
2022/08/24 04:53:49;;;;;;;5.77;3.70;;;20.50;61.20;;;;;;5084732;28;20471;-50
2022/08/24 04:56:22;;;;;;;5.13;3.50;;;20.50;61.50;;;;;;5081699;28;20467;-51
2022/08/24 04:58:50;;;;;;;5.37;3.80;;;20.50;61.60;;;;;;5063171;28;20571;-50
2022/08/24 05:01:20;;;;;;;3.63;3.33;;;20.50;61.70;;;;;;5084963;28;20469;-51
2022/08/24 05:03:49;;;;;;;3.73;3.43;;;20.60;61.60;;;;;;5071442;28;20467;-51
2022/08/24 05:06:17;;;;;;;5.23;3.27;;;20.60;61.50;;;;;;5083712;28;20496;-51
2022/08/24 05:08:46;;;;;;;7.30;4.03;;;20.60;61.50;;;;;;5087808;28;20459;-51
2022/08/24 05:11:13;;;;;;;3.83;3.37;;;20.60;61.50;;;;;;5084238;28;20471;-50
2022/08/24 05:13:40;;;;;;;4.43;3.93;;;20.60;61.50;;;;;;5073144;28;20449;-51
2022/08/24 05:16:14;;;;;;;3.63;3.30;;;20.60;61.50;;;;;;5083562;28;21032;-50
2022/08/24 05:18:42;;;;;;;8.70;4.27;;;20.60;61.80;;;;;;5057789;28;20463;-51
2022/08/24 05:21:11;;;;;;;8.97;3.10;;;20.60;61.90;;;;;;5083070;28;20456;-51
2022/08/24 05:23:39;;;;;;;7.40;4.27;;;20.70;62.00;;;;;;5060650;28;20468;-51
2022/08/24 05:26:15;;;;;;;5.40;3.20;;;20.80;61.50;;;;;;5078820;28;20489;-51
2022/08/24 05:28:43;;;;;;;4.67;3.63;;;20.90;61.50;;;;;;5058612;28;21060;-51
2022/08/24 05:31:19;;;;;;;3.97;3.60;;;20.90;61.60;;;;;;5082322;28;20518;-51
2022/08/24 05:33:47;;;;;;;4.13;3.37;;;20.90;61.70;;;;;;5070717;28;20647;-51
2022/08/24 05:36:23;;;;;;;5.63;3.37;;;21.00;61.50;;;;;;5070602;28;20469;-51
2022/08/24 05:38:52;;;;;;;3.67;3.37;;;21.00;61.60;;;;;;5089374;28;20475;-50
2022/08/24 05:41:20;;;;;;;3.77;3.47;;;21.00;61.80;;;;;;5084990;28;20823;-51
2022/08/24 05:43:46;;;;;;;5.23;3.33;;;21.10;61.90;;;;;;5084666;28;20468;-51
2022/08/24 05:46:14;;;;;;;6.60;3.57;;;21.10;61.90;;;;;;5084271;28;20487;-51
2022/08/24 05:48:42;;;;;;;5.63;3.80;;;21.10;62.10;;;;;;5070461;28;20518;-51
2022/08/24 05:51:16;;;;;;;3.97;3.57;;;21.10;62.20;;;;;;5070358;28;20463;-50
2022/08/24 05:53:43;;;;;;;4.70;3.37;;;21.20;62.10;;;;;;5086293;28;20462;-49
2022/08/24 05:56:13;;;;;;;3.10;2.80;;;21.20;62.20;;;;;;5087579;28;20468;-49
2022/08/24 05:58:40;;;;;;;3.80;3.00;;;21.30;62.60;;;;;;5085348;28;20488;-49
2022/08/24 06:01:14;;;;;;;4.83;3.50;;;21.30;62.60;;;;;;5089592;28;20465;-48
2022/08/24 06:03:41;;;;;;;3.80;2.87;;;21.30;62.60;;;;;;5089997;28;20460;-48
2022/08/24 06:06:09;;;;;;;4.03;2.70;;;21.40;63.30;;;;;;5086655;28;20480;-48
2022/08/24 06:08:41;;;;;;;3.43;2.67;;;21.40;63.00;;;;;;5085991;28;20979;-48
2022/08/24 06:11:08;;;;;;;6.43;3.27;;;21.50;62.80;;;;;;5082893;28;20460;-49
2022/08/24 06:13:35;;;;;;;5.23;3.40;;;21.60;62.70;;;;;;5087437;28;20965;-49
2022/08/24 06:16:11;;;;;;;8.63;3.77;;;21.60;63.10;;;;;;5074618;28;20469;-48
2022/08/24 06:18:48;;;;;;;4.80;3.40;;;21.70;63.10;;;;;;5087250;28;20462;-48
2022/08/24 06:21:18;;;;;;;3.87;3.47;;;21.80;62.90;;;;;;5038033;28;20838;-48
2022/08/24 06:23:47;;;;;;;5.73;2.67;;;21.80;62.80;;;;;;5087609;28;20460;-48
2022/08/24 06:28:59;;;;;;;3.40;3.10;;;22.00;62.30;;;;;;5082055;28;20456;-50
2022/08/24 06:31:27;;;;;;;5.50;3.03;;;22.10;61.60;;;;;;5082890;28;21004;-50
2022/08/24 06:33:56;;;;;;;4.20;2.40;;;22.20;61.30;;;;;;5082989;28;20457;-50
2022/08/24 06:36:22;;;;;;;3.47;2.30;;;22.30;61.60;;;;;;5083320;28;20475;-50
2022/08/24 06:38:50;;;;;;;7.00;4.57;;;22.40;61.70;;;;;;5080890;28;20456;-50
2022/08/24 06:41:17;;;;;;;7.90;5.53;;;22.50;61.20;;;;;;5053727;28;20518;-50
2022/08/24 06:43:44;;;;;;;3.43;2.90;;;22.50;60.70;;;;;;5088933;28;20953;-50
2022/08/24 06:46:11;;;;;;;8.53;2.37;;;22.60;60.10;;;;;;5086942;28;20927;-50
2022/08/24 06:48:38;;;;;;;2.80;2.53;;;22.60;59.30;;;;;;5091381;28;20463;-50
2022/08/24 06:51:13;;;;;;;5.13;2.50;;;22.70;59.30;;;;;;5069415;28;20550;-50
2022/08/24 06:53:40;;;;;;;3.07;2.37;;;22.80;59.10;;;;;;5084881;28;20471;-50
2022/08/24 06:56:07;;;;;;;2.80;2.27;;;22.90;58.80;;;;;;5084458;28;20464;-50
2022/08/24 06:58:35;;;;;;;5.83;2.87;;;22.90;58.60;;;;;;5086304;28;20518;-48
2022/08/24 07:01:18;;;;;;;7.00;4.53;;;23.00;58.20;;;;;;5069684;28;20864;-49
2022/08/24 07:03:45;;;;;;;4.60;3.03;;;23.10;58.00;;;;;;5093604;28;20467;-49
2022/08/24 07:06:13;;;;;;;3.13;2.77;;;23.10;58.10;;;;;;5091830;28;21004;-49
2022/08/24 07:08:41;;;;;;;3.23;2.30;;;23.20;58.00;;;;;;5077311;28;20470;-49
2022/08/24 07:11:10;;;;;;;2.73;2.53;;;23.30;57.70;;;;;;5072901;28;20839;-49
2022/08/24 07:13:37;;;;;;;2.70;2.27;;;23.30;57.60;;;;;;5089675;28;20591;-50
2022/08/24 07:16:04;;;;;;;7.77;3.07;;;23.30;57.70;;;;;;5071105;28;20478;-48
2022/08/24 07:18:31;;;;;;;4.37;2.80;;;23.30;57.60;;;;;;5055374;28;20468;-47
2022/08/24 07:21:02;;;;;;;3.70;2.20;;;23.40;57.30;;;;;;5088967;28;20459;-48
2022/08/24 07:23:29;;;;;;;3.20;2.87;;;23.50;56.90;;;;;;5091755;28;20464;-49
2022/08/24 07:26:14;;;;;;;8.60;3.20;;;23.50;56.80;;;;;;5069417;28;20491;-48
2022/08/24 07:29:00;;;;;;;3.03;2.50;;;23.60;56.90;;;;;;5093309;28;20465;-49
2022/08/24 07:31:26;;;;;;;5.50;5.00;;;23.60;56.80;;;;;;5089749;28;20456;-49
2022/08/24 07:34:00;;;;;;;3.90;3.10;;;23.70;56.70;;;;;;5089516;28;20491;-50
2022/08/24 07:36:27;;;;;;;3.10;2.50;;;23.80;56.30;;;;;;5091082;28;20973;-50
2022/08/24 07:38:55;;;;;;;4.20;3.80;;;23.90;56.00;;;;;;5066597;28;20807;-51
2022/08/24 07:41:24;;;;;;;3.47;2.70;;;24.00;56.20;;;;;;5071226;28;20463;-51
2022/08/24 07:44:12;;;;;;;2.67;2.47;;;24.10;55.90;;;;;;5088746;28;20468;-51
2022/08/24 07:46:39;;;;;;;6.77;2.50;;;24.20;55.80;;;;;;5089012;28;20476;-51
2022/08/24 07:49:07;;;;;;;3.43;2.70;;;24.30;56.00;;;;;;5085664;28;21041;-51
2022/08/24 07:51:54;;;;;;;7.63;2.70;;;24.40;55.70;;;;;;5085427;28;20448;-52
2022/08/24 07:54:21;;;;;;;3.07;2.50;;;24.50;55.20;;;;;;5088416;28;20467;-51
2022/08/24 07:56:49;;;;;;;2.60;2.40;;;24.70;54.60;;;;;;5067014;28;20551;-52
2022/08/24 07:59:16;;;;;;;2.60;2.30;;;24.80;54.50;;;;;;5068807;28;20474;-51
2022/08/24 08:01:43;;;;;;;3.67;2.70;;;24.90;54.40;;;;;;5088217;28;20920;-51
2022/08/24 08:04:10;;;;;;;5.87;3.50;;;25.00;54.30;;;;;;5087924;28;20469;-51
2022/08/24 08:06:37;;;;;;;4.00;2.73;;;25.20;53.90;;;;;;5088211;28;20854;-51
2022/08/24 08:09:05;;;;;;;8.73;2.43;;;25.30;53.40;;;;;;5069855;28;20468;-52
2022/08/24 08:11:32;;;;;;;4.43;2.80;;;25.40;52.90;;;;;;5086587;28;20456;-51
2022/08/24 08:13:58;;;;;;;3.80;2.80;;;25.40;52.40;;;;;;5048276;28;20463;-51
2022/08/24 08:16:26;;;;;;;4.07;2.83;;;25.50;52.30;;;;;;5086458;28;20504;-51
2022/08/24 08:18:54;;;;;;;4.63;3.90;;;25.60;52.20;;;;;;5051437;28;20464;-52
2022/08/24 08:24:36;;;;;;;7.73;3.50;;;25.90;51.40;;;;;;5066279;28;20475;-51
2022/08/24 08:27:04;;;;;;;4.50;2.40;;;26.10;51.10;;;;;;5087119;28;20483;-51
2022/08/24 08:29:32;;;;;;;3.90;2.70;;;26.20;50.50;;;;;;5067350;28;20481;-51
2022/08/24 08:31:59;;;;;;;4.20;2.70;;;26.40;50.40;;;;;;5087635;28;20471;-51
2022/08/24 08:34:26;;;;;;;2.67;2.47;;;26.50;49.90;;;;;;5088581;28;20459;-51
2022/08/24 08:36:53;;;;;;;3.27;2.30;;;26.60;49.90;;;;;;5071931;28;20464;-51
2022/08/24 08:39:21;;;;;;;5.17;2.70;;;26.70;49.50;;;;;;5086717;28;21131;-51
2022/08/24 08:41:59;;;;;;;5.20;3.03;;;26.80;49.40;;;;;;5088501;28;20459;-51
2022/08/24 08:44:59;;;;;;;4.43;2.40;;;27.00;49.00;;;;;;5089664;28;20464;-50
2022/08/24 08:47:38;;;;;;;4.33;2.50;;;27.10;48.80;;;;;;5066707;28;20499;-50
2022/08/24 08:50:20;;;;;;;5.20;4.17;;;27.20;48.70;;;;;;5086694;28;20880;-50
2022/08/24 08:53:00;;;;;;;6.07;3.40;;;27.20;48.70;;;;;;5082838;28;20456;-50
2022/08/24 08:55:48;;;;;;;2.83;2.30;;;27.30;48.50;;;;;;5066160;28;20464;-50
2022/08/24 08:58:52;;;;;;;3.60;2.30;;;27.40;48.60;;;;;;5065435;28;21249;-50
2022/08/24 09:02:01;;;;;;;4.33;2.93;;;27.40;48.60;;;;;;5066775;28;20585;-50
2022/08/24 09:05:01;;;;;;;4.30;2.70;;;27.50;48.20;;;;;;5053370;28;20487;-50
2022/08/24 09:08:04;;;;;;;3.33;2.93;;;27.50;47.80;;;;;;5069312;28;20495;-50
2022/08/24 09:10:43;;;;;;;5.53;2.57;;;27.50;47.90;;;;;;5086807;28;20832;-50
2022/08/24 09:13:31;;;;;;;6.67;3.30;;;27.50;47.90;;;;;;5088965;28;20463;-50
2022/08/24 09:16:10;;;;;;;3.70;2.40;;;27.50;47.90;;;;;;5053574;28;20554;-50
2022/08/24 09:18:58;;;;;;;6.60;3.10;;;27.50;47.90;;;;;;5086763;28;20463;-50
2022/08/24 09:21:50;;;;;;;3.40;2.57;;;27.50;47.70;;;;;;5068086;28;20450;-50
2022/08/24 09:24:38;;;;;;;5.90;2.60;;;27.60;47.40;;;;;;5067815;28;20813;-50
2022/08/24 09:27:31;;;;;;;3.73;2.87;;;27.70;47.40;;;;;;5085854;28;20494;-52
2022/08/24 09:30:01;;;;;;;3.40;2.50;;;;;;;;;;5081868;28;20832;-51
2022/08/24 09:32:36;;;;;;;4.20;3.07;;;;;;;;;;5079666;28;20464;-51
2022/08/24 09:35:08;;;;;;;4.03;2.83;;;;;;;;;;5087385;28;20837;-52
2022/08/24 09:37:38;;;;;;;6.27;3.07;;;;;;;;;;5085229;28;20216;-51
2022/08/24 09:40:16;;;;;;;5.43;2.60;;;;;;;;;;5059181;28;20472;-51
2022/08/24 09:42:59;;;;;;;4.60;2.93;;;;;;;;;;5087717;28;21002;-51
2022/08/24 09:45:35;;;;;;;3.00;2.30;;;;;;;;;;5065254;28;20455;-51
2022/08/24 09:48:09;;;;;;;7.47;2.87;;;;;;;;;;5082432;28;20240;-51
2022/08/24 09:50:48;;;;;;;3.93;2.83;;;;;;;;;;5084064;28;20456;-51
2022/08/24 09:53:27;;;;;;;3.30;2.70;;;;;;;;;;5084214;28;20596;-51
2022/08/24 09:55:54;;;;;;;3.77;3.37;;;;;;;;;;5084359;28;20202;-51
2022/08/24 09:58:36;;;;;;;4.10;2.63;;;;;;;;;;5066246;28;20238;-51
2022/08/24 10:01:08;;;;;;;2.50;2.30;;;;;;;;;;5084786;28;20675;-51
2022/08/24 10:03:54;;;;;;;3.93;2.53;;;;;;;;;;5066164;28;20262;-51
2022/08/24 10:06:21;;;;;;;3.63;2.80;;;;;;;;;;5086376;28;20209;-51
2022/08/24 10:08:48;;;;;;;2.80;2.43;;;;;;;;;;5083575;28;20222;-51
2022/08/24 10:11:30;;;;;;;4.80;3.23;;;30.20;42.50;;;;;;5070961;28;20678;-51
2022/08/24 10:14:17;;;;;;;2.60;2.40;;;30.00;42.20;;;;;;5081212;28;20203;-51
2022/08/24 10:17:13;;;;;;;6.83;3.30;;;29.80;42.50;;;;;;5076704;28;20215;-51
2022/08/24 10:20:15;;;;;;;3.10;2.90;;;29.80;42.60;;;;;;5084992;28;20218;-51
2022/08/24 10:23:09;;;;;;;5.22;3.08;;;29.70;42.80;;;;;;5067814;28;20217;-52
2022/08/24 10:25:46;;;;;;;3.83;2.73;;;29.80;43.00;;;;;;5085007;28;20206;-51
2022/08/24 10:28:34;;;;;;;2.38;2.17;;;29.80;42.80;;;;;;5066163;28;20317;-51
2022/08/24 10:31:32;;;;;;;6.18;2.70;;;29.80;42.80;;;;;;5077534;28;20206;-52
2022/08/24 10:34:36;;;;;;;4.75;2.90;;;29.80;42.60;;;;;;5080733;28;20654;-51
2022/08/24 10:37:40;;;;;;;3.03;2.70;;;29.80;42.20;;;;;;5081590;28;20225;-52
2022/08/24 10:40:15;;;;;;;4.55;2.70;;;29.90;42.40;;;;;;5081663;28;20206;-51
2022/08/24 10:46:10;;;;;;;5.15;2.90;;;29.80;42.30;;;;;;5080027;28;20216;-52
2022/08/24 10:49:18;;;;;;;6.78;2.90;;;29.80;42.10;;;;;;5061226;28;20695;-51
2022/08/24 10:52:23;;;;;;;3.13;2.58;;;29.80;42.00;;;;;;5085432;28;20227;-51
2022/08/24 10:54:50;;;;;;;3.58;3.00;;;30.00;41.90;;;;;;5063311;28;20210;-51
2022/08/24 10:57:32;;;;;;;4.22;3.05;;;30.20;41.30;;;;;;5083088;28;20257;-51
2022/08/24 11:00:19;;;;;;;3.38;2.97;;;30.20;41.20;;;;;;5053076;28;20221;-52
2022/08/24 11:03:03;;;;;;;3.80;2.80;;;30.10;41.50;;;;;;5063648;28;20229;-52
2022/08/24 11:05:44;;;;;;;2.70;2.50;;;30.00;41.20;;;;;;5082951;28;20729;-52
2022/08/24 11:08:22;;;;;;;5.20;2.67;;;29.80;41.70;;;;;;5082341;28;20752;-52
2022/08/24 11:11:09;;;;;;;6.75;2.78;;;29.80;42.10;;;;;;5084199;28;20209;-52
2022/08/24 11:13:48;;;;;;;4.18;2.75;;;29.70;42.50;;;;;;5064379;28;20210;-52
2022/08/24 11:16:29;;;;;;;8.00;3.97;;;29.70;42.20;;;;;;5064654;28;20206;-52
2022/08/24 11:18:59;;;;;;;8.77;2.67;;;29.70;41.80;;;;;;5083242;28;20206;-52
2022/08/24 11:21:43;;;;;;;6.53;2.67;;;29.70;41.80;;;;;;5083658;28;20206;-52
2022/08/24 11:24:25;;;;;;;4.35;2.53;;;29.70;41.20;;;;;;5067755;28;20676;-52
2022/08/24 11:27:04;;;;;;;5.43;2.57;;;29.60;40.80;;;;;;5058657;28;20684;-52
2022/08/24 11:29:52;;;;;;;4.97;3.03;;;29.60;41.00;;;;;;5064900;28;20293;-52
2022/08/24 11:32:41;;;;;;;5.53;2.90;;;29.50;40.00;;;;;;5088942;28;20634;-51
2022/08/24 11:35:34;;;;;;;5.47;3.77;;;29.40;40.40;;;;;;5089768;28;20206;-52
2022/08/24 11:38:30;;;;;;;4.28;3.00;;;29.40;40.90;;;;;;5062566;28;20206;-52
2022/08/24 11:41:24;;;;;;;3.73;3.43;;;29.30;41.50;;;;;;5065457;28;20654;-51
2022/08/24 11:44:11;;;;;;;3.60;3.07;;;29.20;41.70;;;;;;5078085;28;20606;-52
2022/08/24 11:46:59;;;;;;;3.08;2.78;;;29.20;41.70;;;;;;5076297;28;20225;-52
2022/08/24 11:49:48;;;;;;;4.93;3.40;;;29.20;41.60;;;;;;5086740;28;20225;-52
2022/08/24 11:52:47;;;;;;;5.60;2.73;;;29.20;42.10;;;;;;5088267;28;20221;-52
2022/08/24 11:55:37;;;;;;;5.70;3.10;;;29.20;42.00;;;;;;5056145;28;20198;-52
2022/08/24 11:58:40;;;;;;;6.70;2.73;;;29.20;42.10;;;;;;5042855;28;20230;-52
2022/08/24 12:01:36;;;;;;;5.20;3.13;;;29.20;41.20;;;;;;5068621;28;20217;-52
2022/08/24 12:04:24;;;;;;;3.20;2.60;;;29.10;41.20;;;;;;5085786;28;20727;-54
2022/08/24 12:07:10;;;;;;;3.13;2.93;;;29.20;41.20;;;;;;5086704;28;20213;-50
2022/08/24 12:09:57;;;;;;;3.83;2.73;;;29.20;41.20;;;;;;5082863;28;20198;-50
2022/08/24 12:12:53;;;;;;;2.90;2.70;;;29.20;41.30;;;;;;5071760;28;20214;-50
2022/08/24 12:15:35;;;;;;;5.57;3.20;;;29.20;41.30;;;;;;5066681;28;20209;-50
2022/08/24 12:18:11;;;;;;;4.37;3.10;;;29.20;40.90;;;;;;5083525;28;20225;-50
2022/08/24 12:20:42;;;;;;;8.97;4.20;;;29.30;40.80;;;;;;5081467;28;20213;-50
2022/08/24 12:23:36;;;;;;;3.93;3.03;;;29.30;40.80;;;;;;5058032;28;20209;-50
2022/08/24 12:26:25;;;;;;;3.65;2.97;;;29.40;41.10;;;;;;5077611;28;20703;-50
2022/08/24 12:29:00;;;;;;;2.93;2.73;;;29.30;39.90;;;;;;5075693;28;20226;-50
2022/08/24 12:31:49;;;;;;;4.38;2.90;;;29.30;39.80;;;;;;5061226;28;20208;-50
2022/08/24 12:34:45;;;;;;;3.53;3.23;;;29.40;40.00;;;;;;5083353;28;20287;-50
2022/08/24 12:37:30;;;;;;;4.30;3.23;;;29.40;39.40;;;;;;5072065;28;20205;-49
2022/08/24 12:40:28;;;;;;;5.20;3.20;;;29.40;39.80;;;;;;5085006;28;20220;-50
2022/08/24 12:43:22;;;;;;;3.37;3.07;;;29.50;39.60;;;;;;5054635;28;20218;-50
2022/08/24 12:45:50;;;;;;;3.50;3.17;;;29.40;38.60;;;;;;5084327;28;20211;-50
2022/08/24 12:48:42;;;;;;;3.88;3.58;;;29.40;39.10;;;;;;5088130;28;20241;-49
2022/08/24 12:51:26;;;;;;;3.00;2.77;;;29.50;39.30;;;;;;5087981;28;20210;-50
2022/08/24 12:54:24;;;;;;;4.97;3.00;;;29.50;39.50;;;;;;5080286;28;20584;-49
2022/08/24 12:57:05;;;;;;;2.88;2.67;;;29.50;39.30;;;;;;5082666;28;20546;-50
2022/08/24 12:59:50;;;;;;;3.67;3.43;;;29.60;39.50;;;;;;5069063;28;20206;-50
2022/08/24 13:02:17;;;;;;;3.75;2.85;;;29.50;39.50;;;;;;5069195;28;20212;-50
2022/08/24 13:04:50;;;;;;;5.32;2.90;;;29.60;39.20;;;;;;5065729;28;20683;-50
2022/08/24 13:07:22;;;;;;;5.07;3.00;;;29.50;39.50;;;;;;5086823;28;20226;-49
2022/08/24 13:09:54;;;;;;;6.30;3.23;;;29.60;39.60;;;;;;5087362;28;20213;-50
2022/08/24 13:12:42;;;;;;;3.20;2.67;;;29.60;39.60;;;;;;5086373;28;20217;-50
2022/08/24 13:15:26;;;;;;;4.87;2.90;;;29.60;39.30;;;;;;5083731;28;20537;-50
2022/08/24 13:18:05;;;;;;;3.17;2.87;;;29.60;39.40;;;;;;5079612;28;20213;-50
2022/08/24 13:20:35;;;;;;;2.90;2.70;;;29.70;39.20;;;;;;5077772;28;20310;-50
2022/08/24 13:23:17;;;;;;;4.10;3.03;;;29.70;39.10;;;;;;5085280;28;20214;-50
2022/08/24 13:25:49;;;;;;;3.70;2.40;;;29.70;39.10;;;;;;5084926;28;20224;-50
2022/08/24 13:28:19;;;;;;;3.05;2.80;;;29.70;38.20;;;;;;5082343;28;20715;-50
2022/08/24 13:31:19;;;;;;;4.50;2.70;;;29.80;38.00;;;;;;5082348;28;20601;-50
2022/08/24 13:33:50;;;;;;;4.63;2.77;;;29.80;38.00;;;;;;5044388;28;20991;-50
2022/08/24 13:36:43;;;;;;;4.05;2.50;;;29.90;37.50;;;;;;5083746;28;20553;-50
2022/08/24 13:39:36;;;;;;;4.25;2.85;;;29.90;37.40;;;;;;5085407;28;20501;-50
2022/08/24 13:42:18;;;;;;;3.58;3.15;;;30.00;37.50;;;;;;5078767;28;20233;-50